createdAt,value
2019-01-04T00:01:45.300Z,80.42
2019-01-04T00:04:21.073Z,80.68
2019-01-04T00:06:51.513Z,80.60
2019-01-04T00:09:21.970Z,80.83
2019-01-04T00:11:52.643Z,80.65
2019-01-04T00:14:23.096Z,80.76
2019-01-04T00:16:53.815Z,80.43
2019-01-04T00:19:24.541Z,80.63
2019-01-04T00:21:54.931Z,80.49
2019-01-04T00:24:25.671Z,80.46
2019-01-04T00:26:57.021Z,80.48
2019-01-04T00:29:27.506Z,80.45
2019-01-04T00:31:58.019Z,80.45
2019-01-04T00:34:28.625Z,80.59
2019-01-04T00:36:59.284Z,80.55
2019-01-04T00:39:30.017Z,80.47
2019-01-04T00:42:01.913Z,80.59
2019-01-04T00:44:32.627Z,80.38
2019-01-04T00:47:03.553Z,80.37
2019-01-04T00:49:33.968Z,80.57
2019-01-04T00:52:04.631Z,80.17
2019-01-04T00:54:35.118Z,80.46
2019-01-04T00:57:44.924Z,80.46
2019-01-04T01:01:01.037Z,80.59
2019-01-04T01:04:13.328Z,80.53
2019-01-04T01:07:17.874Z,80.55
2019-01-04T01:10:23.915Z,80.26
2019-01-04T01:13:21.823Z,80.45
2019-01-04T01:16:33.025Z,80.52
2019-01-04T01:19:30.658Z,80.51
2019-01-04T01:22:28.299Z,80.44
2019-01-04T01:25:35.204Z,80.56
2019-01-04T01:28:35.139Z,80.55
2019-01-04T01:31:50.942Z,80.76
2019-01-04T01:35:13.037Z,80.63
2019-01-04T01:38:19.209Z,80.60
2019-01-04T01:41:38.668Z,80.66
2019-01-04T01:44:49.915Z,81.15
2019-01-04T01:47:28.483Z,81.14
2019-01-04T01:50:24.713Z,81.27
2019-01-04T01:52:55.360Z,81.28
2019-01-04T01:55:25.892Z,81.07
2019-01-04T01:57:56.650Z,80.76
2019-01-04T02:00:27.307Z,80.61
2019-01-04T02:02:57.825Z,80.79
2019-01-04T02:05:30.144Z,80.92
2019-01-04T02:08:00.535Z,81.06
2019-01-04T02:10:30.883Z,81.31
2019-01-04T02:13:01.628Z,80.88
2019-01-04T02:15:31.973Z,80.88
2019-01-04T02:18:02.629Z,81.34
2019-01-04T02:20:33.432Z,81.34
2019-01-04T02:23:03.881Z,81.23
2019-01-04T02:25:35.511Z,81.16
2019-01-04T02:28:06.100Z,81.40
2019-01-04T02:30:36.564Z,81.53
2019-01-04T02:33:06.924Z,81.58
2019-01-04T02:35:37.681Z,82.00
2019-01-04T02:38:08.350Z,82.15
2019-01-04T02:40:38.732Z,82.15
2019-01-04T02:43:09.642Z,82.35
2019-01-04T02:45:39.987Z,82.60
2019-01-04T02:48:10.542Z,82.60
2019-01-04T02:50:41.113Z,82.71
2019-01-04T02:53:11.586Z,82.80
2019-01-04T02:55:42.008Z,83.05
2019-01-04T02:58:12.879Z,83.08
2019-01-04T03:00:43.555Z,83.35
2019-01-04T03:03:13.959Z,83.57
2019-01-04T03:05:44.602Z,83.50
2019-01-04T03:08:14.922Z,83.43
2019-01-04T03:10:45.570Z,83.52
2019-01-04T03:13:16.164Z,83.42
2019-01-04T03:15:46.747Z,83.87
2019-01-04T03:18:17.409Z,83.56
2019-01-04T03:20:48.200Z,83.48
2019-01-04T03:23:18.656Z,83.52
2019-01-04T03:25:49.413Z,83.71
2019-01-04T03:28:19.973Z,83.87
2019-01-04T03:30:50.665Z,83.81
2019-01-04T03:33:21.024Z,83.71
2019-01-04T03:35:52.054Z,84.03
2019-01-04T03:38:22.825Z,84.16
2019-01-04T03:40:53.874Z,84.33
2019-01-04T03:43:24.676Z,84.27
2019-01-04T03:45:55.345Z,84.05
2019-01-04T03:48:25.705Z,83.99
2019-01-04T03:50:56.332Z,84.03
2019-01-04T03:53:26.712Z,84.30
2019-01-04T03:55:57.476Z,84.40
2019-01-04T03:58:27.959Z,84.49
2019-01-04T04:00:58.558Z,84.35
2019-01-04T04:03:28.912Z,84.26
2019-01-04T04:05:59.584Z,84.19
2019-01-04T04:08:29.941Z,84.19
2019-01-04T04:11:00.587Z,84.43
2019-01-04T04:13:31.097Z,84.43
2019-01-04T04:16:01.757Z,84.38
2019-01-04T04:18:32.376Z,84.39
2019-01-04T04:21:02.874Z,84.62
2019-01-04T04:23:33.545Z,84.53
2019-01-04T04:26:04.001Z,84.66
2019-01-04T04:28:34.860Z,84.44
2019-01-04T04:31:05.460Z,84.39
2019-01-04T04:33:35.851Z,84.39
2019-01-04T04:36:07.777Z,84.49
2019-01-04T04:38:38.457Z,84.17
2019-01-04T04:41:08.814Z,84.18
2019-01-04T04:43:39.677Z,83.79
2019-01-04T04:46:10.069Z,83.85
2019-01-04T04:48:40.771Z,83.85
2019-01-04T04:51:11.614Z,84.09
2019-01-04T04:53:41.966Z,83.88
2019-01-04T04:56:12.486Z,83.75
2019-01-04T04:58:43.176Z,83.55
2019-01-04T05:01:13.539Z,83.52
2019-01-04T05:03:43.958Z,83.49
2019-01-04T05:06:14.595Z,83.25
2019-01-04T05:08:44.959Z,82.99
2019-01-04T05:11:15.603Z,83.03
2019-01-04T05:13:46.082Z,82.74
2019-01-04T05:16:16.584Z,82.69
2019-01-04T05:18:46.984Z,82.60
2019-01-04T05:21:17.879Z,82.64
2019-01-04T05:23:48.527Z,82.63
2019-01-04T05:26:18.952Z,82.66
2019-01-04T05:28:49.771Z,82.61
2019-01-04T05:31:20.427Z,82.35
2019-01-04T05:33:50.823Z,82.40
2019-01-04T05:36:21.765Z,82.24
2019-01-04T05:38:52.435Z,82.38
2019-01-04T05:41:22.804Z,82.35
2019-01-04T05:43:53.616Z,82.28
2019-01-04T05:46:24.310Z,82.43
2019-01-04T05:48:55.056Z,82.41
2019-01-04T05:51:25.901Z,82.29
2019-01-04T05:53:56.562Z,82.35
2019-01-04T05:56:27.052Z,82.31
2019-01-04T05:58:57.675Z,82.32
2019-01-04T06:01:28.405Z,82.45
2019-01-04T06:03:58.759Z,82.45
2019-01-04T06:06:29.604Z,82.40
2019-01-04T06:08:59.969Z,82.45
2019-01-04T06:11:31.917Z,82.29
2019-01-04T06:14:03.354Z,82.29
2019-01-04T06:16:33.707Z,82.41
2019-01-04T06:19:04.360Z,82.40
2019-01-04T06:21:35.027Z,82.40
2019-01-04T06:24:05.998Z,82.35
2019-01-04T06:26:36.692Z,82.21
2019-01-04T06:29:07.246Z,82.26
2019-01-04T06:31:37.600Z,82.26
2019-01-04T06:34:07.986Z,82.24
2019-01-04T06:36:38.835Z,82.28
2019-01-04T06:39:10.043Z,82.52
2019-01-04T06:41:40.778Z,82.52
2019-01-04T06:44:11.738Z,82.25
2019-01-04T06:47:16.185Z,82.26
2019-01-04T06:49:47.369Z,82.42
2019-01-04T06:52:17.832Z,82.52
2019-01-04T06:55:45.414Z,82.57
2019-01-04T06:58:15.856Z,82.42
2019-01-04T07:00:46.497Z,82.43
2019-01-04T07:03:16.992Z,82.82
2019-01-04T07:05:47.673Z,82.79
2019-01-04T07:08:18.130Z,82.87
2019-01-04T07:10:48.586Z,82.80
2019-01-04T07:13:18.945Z,82.81
2019-01-04T07:15:49.614Z,82.83
2019-01-04T07:18:20.074Z,82.73
2019-01-04T07:20:51.259Z,83.16
2019-01-04T07:23:21.953Z,83.42
2019-01-04T07:25:53.146Z,83.37
2019-01-04T07:28:23.543Z,83.52
2019-01-04T07:30:53.878Z,83.57
2019-01-04T07:33:24.908Z,83.57
2019-01-04T07:35:55.558Z,83.94
2019-01-04T07:38:25.904Z,83.93
2019-01-04T07:40:56.691Z,83.93
2019-01-04T07:43:27.379Z,83.85
2019-01-04T07:45:57.731Z,83.81
2019-01-04T07:48:28.504Z,83.87
2019-01-04T07:50:58.903Z,83.99
2019-01-04T07:53:29.555Z,84.04
2019-01-04T07:56:00.670Z,83.84
2019-01-04T07:58:31.410Z,83.94
2019-01-04T08:01:01.920Z,83.91
2019-01-04T08:03:32.663Z,84.14
2019-01-04T08:06:03.990Z,84.31
2019-01-04T08:08:34.529Z,84.76
2019-01-04T08:11:05.063Z,84.70
2019-01-04T08:13:35.710Z,84.77
2019-01-04T08:16:06.397Z,85.10
2019-01-04T08:18:36.855Z,85.19
2019-01-04T08:21:07.575Z,85.21
2019-01-04T08:23:38.056Z,85.42
2019-01-04T08:26:08.791Z,85.43
2019-01-04T08:28:39.440Z,85.58
2019-01-04T08:31:09.851Z,85.69
2019-01-04T08:33:40.650Z,85.45
2019-01-04T08:36:11.147Z,85.45
2019-01-04T08:38:41.804Z,85.66
2019-01-04T08:41:12.951Z,85.77
2019-01-04T08:43:43.771Z,85.91
2019-01-04T08:46:14.458Z,85.71
2019-01-04T08:48:44.906Z,85.51
2019-01-04T08:51:15.525Z,85.81
2019-01-04T08:54:03.663Z,85.76
2019-01-04T08:56:36.621Z,85.80
2019-01-04T08:59:07.025Z,86.07
2019-01-04T09:01:37.679Z,86.18
2019-01-04T09:04:08.036Z,86.47
2019-01-04T09:06:38.721Z,86.43
2019-01-04T09:09:10.006Z,86.38
2019-01-04T09:11:40.649Z,86.56
2019-01-04T09:14:10.969Z,86.63
2019-01-04T09:16:41.650Z,86.67
2019-01-04T09:19:12.010Z,86.96
2019-01-04T09:21:42.531Z,86.29
2019-01-04T09:24:13.024Z,86.42
2019-01-04T09:26:43.747Z,86.72
2019-01-04T09:29:14.474Z,86.66
2019-01-04T09:31:44.978Z,86.34
2019-01-04T09:34:16.930Z,86.53
2019-01-04T09:36:47.580Z,86.19
2019-01-04T09:39:18.060Z,86.26
2019-01-04T09:42:10.383Z,86.17
2019-01-04T09:44:41.148Z,86.34
2019-01-04T09:47:11.821Z,86.05
2019-01-04T09:49:42.504Z,86.08
2019-01-04T09:52:13.011Z,86.09
2019-01-04T09:54:43.638Z,86.22
2019-01-04T09:57:13.990Z,85.61
2019-01-04T09:59:44.878Z,85.62
2019-01-04T10:02:15.589Z,85.55
2019-01-04T10:04:45.967Z,85.69
2019-01-04T10:07:17.115Z,85.44
2019-01-04T10:09:47.609Z,85.62
2019-01-04T10:12:18.029Z,85.75
2019-01-04T10:14:48.680Z,85.73
2019-01-04T10:17:19.104Z,85.59
2019-01-04T10:19:49.555Z,85.67
2019-01-04T10:22:20.064Z,85.17
2019-01-04T10:24:50.955Z,85.32
2019-01-04T10:27:21.515Z,85.53
2019-01-04T10:29:52.052Z,85.82
2019-01-04T10:32:23.586Z,85.89
2019-01-04T10:34:53.981Z,86.00
2019-01-04T10:37:24.803Z,86.49
2019-01-04T10:39:55.574Z,86.82
2019-01-04T10:42:25.999Z,87.27
2019-01-04T10:44:57.896Z,88.02
2019-01-04T10:47:28.565Z,88.06
2019-01-04T10:49:58.948Z,88.32
2019-01-04T10:52:29.859Z,87.91
2019-01-04T10:55:00.548Z,87.06
2019-01-04T10:57:30.995Z,87.61
2019-01-04T11:00:01.950Z,87.95
2019-01-04T11:02:32.500Z,88.12
2019-01-04T11:05:06.052Z,88.16
2019-01-04T11:07:36.726Z,87.98
2019-01-04T11:10:08.298Z,88.55
2019-01-04T11:12:38.660Z,88.55
2019-01-04T11:15:09.203Z,88.20
2019-01-04T11:17:39.801Z,88.44
2019-01-04T11:20:48.823Z,88.36
2019-01-04T11:24:06.189Z,88.15
2019-01-04T11:26:52.518Z,88.42
2019-01-04T11:29:45.696Z,87.82
2019-01-04T11:32:29.435Z,88.27
2019-01-04T11:35:46.807Z,88.63
2019-01-04T11:38:46.149Z,88.54
2019-01-04T11:42:09.488Z,88.80
2019-01-04T11:44:54.290Z,88.83
2019-01-04T11:48:09.970Z,88.38
2019-01-04T11:51:16.528Z,87.79
2019-01-04T11:53:47.007Z,87.94
2019-01-04T11:56:17.492Z,87.66
2019-01-04T11:58:48.019Z,87.75
2019-01-04T12:01:18.483Z,88.19
2019-01-04T12:03:59.466Z,88.02
2019-01-04T12:06:31.022Z,88.51
2019-01-04T12:09:01.538Z,88.51
2019-01-04T12:11:31.936Z,88.74
2019-01-04T12:14:02.697Z,88.49
2019-01-04T12:16:33.334Z,88.76
2019-01-04T12:19:03.823Z,88.82
2019-01-04T12:21:34.697Z,89.56
2019-01-04T12:24:05.345Z,89.56
2019-01-04T12:26:35.715Z,89.92
2019-01-04T12:29:06.479Z,90.13
2019-01-04T12:31:36.799Z,90.56
2019-01-04T12:34:07.534Z,90.05
2019-01-04T12:36:38.038Z,90.77
2019-01-04T12:39:10.312Z,90.88
2019-01-04T12:41:41.960Z,90.59
2019-01-04T12:44:12.728Z,91.19
2019-01-04T12:46:43.455Z,90.92
2019-01-04T12:49:15.166Z,91.31
2019-01-04T12:51:45.706Z,91.58
2019-01-04T12:54:16.334Z,91.32
2019-01-04T12:56:46.992Z,91.60
2019-01-04T12:59:18.864Z,91.78
2019-01-04T13:01:51.827Z,92.14
2019-01-04T13:04:22.562Z,92.26
2019-01-04T13:06:53.018Z,91.98
2019-01-04T13:09:24.880Z,92.14
2019-01-04T13:11:56.182Z,92.19
2019-01-04T13:14:26.801Z,92.42
2019-01-04T13:16:57.476Z,92.40
2019-01-04T13:19:28.186Z,92.74
2019-01-04T13:21:58.883Z,92.46
2019-01-04T13:24:30.056Z,92.68
2019-01-04T13:27:00.870Z,92.68
2019-01-04T13:29:34.553Z,92.73
2019-01-04T13:32:04.905Z,92.98
2019-01-04T13:34:36.373Z,92.66
2019-01-04T13:37:07.232Z,92.83
2019-01-04T13:39:37.593Z,93.11
2019-01-04T13:42:09.484Z,93.11
2019-01-04T13:44:40.427Z,93.11
2019-01-04T13:47:10.889Z,93.24
2019-01-04T13:49:41.478Z,93.81
2019-01-04T13:52:13.066Z,93.81
2019-01-04T13:54:43.878Z,93.52
2019-01-04T13:57:14.552Z,93.57
2019-01-04T13:59:45.022Z,93.63
2019-01-04T14:02:15.776Z,93.71
2019-01-04T14:04:46.468Z,93.91
2019-01-04T14:07:16.938Z,93.82
2019-01-04T14:09:47.571Z,93.97
2019-01-04T14:12:17.942Z,94.22
2019-01-04T14:14:48.557Z,94.19
2019-01-04T14:17:18.942Z,94.10
2019-01-04T14:19:49.628Z,94.42
2019-01-04T14:22:20.145Z,94.73
2019-01-04T14:24:50.845Z,95.25
2019-01-04T14:27:21.475Z,95.82
2019-01-04T14:29:52.065Z,96.19
2019-01-04T14:32:22.568Z,96.66
2019-01-04T14:34:52.936Z,96.92
2019-01-04T14:37:23.706Z,97.24
2019-01-04T14:39:54.375Z,97.85
2019-01-04T14:42:24.802Z,97.85
2019-01-04T14:44:55.558Z,97.91
2019-01-04T14:47:25.935Z,98.12
2019-01-04T14:49:56.710Z,98.50
2019-01-04T14:52:27.568Z,98.75
2019-01-04T14:54:58.107Z,99.13
2019-01-04T14:57:28.893Z,99.22
2019-01-04T14:59:59.756Z,99.29
2019-01-04T15:02:30.492Z,99.34
2019-01-04T15:05:00.985Z,99.59
2019-01-04T15:07:31.937Z,99.60
2019-01-04T15:10:02.544Z,99.74
2019-01-04T15:12:32.987Z,99.96
2019-01-04T15:15:03.856Z,100.00
2019-01-04T15:17:34.639Z,100.00
2019-01-04T15:20:05.198Z,100.00
2019-01-04T15:22:35.943Z,100.00
2019-01-04T15:25:06.914Z,100.00
2019-01-04T15:27:38.988Z,100.00
2019-01-04T15:30:12.396Z,100.00
2019-01-04T15:32:42.889Z,100.00
2019-01-04T15:35:13.540Z,100.00
2019-01-04T15:37:44.024Z,100.00
2019-01-04T15:40:14.911Z,100.00
2019-01-04T15:42:45.652Z,100.00
2019-01-04T15:45:16.595Z,100.00
2019-01-04T15:47:47.093Z,100.00
2019-01-04T15:50:17.752Z,100.00
2019-01-04T15:52:49.903Z,100.00
2019-01-04T15:55:21.848Z,100.00
2019-01-04T15:57:52.519Z,100.00
2019-01-04T16:00:23.164Z,100.00
2019-01-04T16:02:53.880Z,100.00
2019-01-04T16:05:25.170Z,100.00
2019-01-04T16:07:56.509Z,100.00
2019-01-04T16:10:27.342Z,100.00
2019-01-04T16:12:57.889Z,100.00
2019-01-04T16:15:28.796Z,100.00
2019-01-04T16:18:01.051Z,100.00
2019-01-04T16:20:31.617Z,100.00
2019-01-04T16:23:02.630Z,100.00
2019-01-04T16:25:33.006Z,100.00
2019-01-04T16:28:04.925Z,100.00
2019-01-04T16:30:35.721Z,100.00
2019-01-04T16:33:07.093Z,100.00
2019-01-04T16:35:38.093Z,100.00
2019-01-04T16:38:08.702Z,100.00
2019-01-04T16:40:40.055Z,100.00
2019-01-04T16:43:11.355Z,100.00
2019-01-04T16:45:42.048Z,100.00
2019-01-04T16:48:12.767Z,100.00
2019-01-04T16:50:43.445Z,100.00
2019-01-04T16:53:15.182Z,100.00
2019-01-04T16:55:45.645Z,100.00
2019-01-04T16:58:16.311Z,100.00
2019-01-04T17:00:46.868Z,100.00
2019-01-04T17:03:17.549Z,100.00
2019-01-04T17:05:48.044Z,100.00
2019-01-04T17:08:18.876Z,100.00
2019-01-04T17:10:49.611Z,100.00
2019-01-04T17:13:20.911Z,100.00
2019-01-04T17:15:51.768Z,100.00
2019-01-04T17:18:22.457Z,100.00
2019-01-04T17:20:52.855Z,100.00
2019-01-04T17:23:23.720Z,100.00
2019-01-04T17:25:54.392Z,100.00
2019-01-04T17:28:24.985Z,100.00
2019-01-04T17:30:55.671Z,100.00
2019-01-04T17:33:27.616Z,100.00
2019-01-04T17:35:58.004Z,100.00
2019-01-04T17:38:29.024Z,100.00
2019-01-04T17:40:59.495Z,100.00
2019-01-04T17:43:31.616Z,100.00
2019-01-04T17:46:02.181Z,100.00
2019-01-04T17:48:32.752Z,100.00
2019-01-04T17:51:03.450Z,100.00
2019-01-04T17:53:34.462Z,100.00
2019-01-04T17:56:05.022Z,100.00
2019-01-04T17:58:38.875Z,100.00
2019-01-04T18:01:09.792Z,100.00
2019-01-04T18:03:40.518Z,100.00
2019-01-04T18:06:10.959Z,100.00
2019-01-04T18:08:41.864Z,100.00
2019-01-04T18:11:12.569Z,100.00
2019-01-04T18:13:43.079Z,100.00
2019-01-04T18:16:13.681Z,100.00
2019-01-04T18:18:44.477Z,100.00
2019-01-04T18:21:14.848Z,100.00
2019-01-04T18:23:45.696Z,100.00
2019-01-04T18:26:16.382Z,100.00
2019-01-04T18:28:46.771Z,100.00
2019-01-04T18:31:17.731Z,100.00
2019-01-04T18:33:48.976Z,100.00
2019-01-04T18:36:19.533Z,100.00
2019-01-04T18:38:50.042Z,100.00
2019-01-04T18:41:20.752Z,100.00
2019-01-04T18:43:51.422Z,100.00
2019-01-04T18:46:21.922Z,100.00
2019-01-04T18:48:52.539Z,100.00
2019-01-04T18:51:22.931Z,100.00
2019-01-04T18:53:55.076Z,100.00
2019-01-04T18:56:25.583Z,100.00
2019-01-04T18:58:55.972Z,100.00
2019-01-04T19:01:26.678Z,100.00
2019-01-04T19:03:57.067Z,100.00
2019-01-04T19:06:31.161Z,100.00
2019-01-04T19:09:00.056Z,100.00
2019-01-04T19:11:30.691Z,100.00
2019-01-04T19:14:01.335Z,100.00
2019-01-04T19:16:31.877Z,100.00
2019-01-04T19:19:02.511Z,100.00
2019-01-04T19:21:33.024Z,100.00
2019-01-04T19:24:03.931Z,100.00
2019-01-04T19:26:34.978Z,100.00
2019-01-04T19:29:05.717Z,100.00
2019-01-04T19:31:37.049Z,100.00
2019-01-04T19:34:07.580Z,100.00
2019-01-04T19:36:38.023Z,100.00
2019-01-04T19:39:10.174Z,100.00
2019-01-04T19:41:49.608Z,100.00
2019-01-04T19:44:22.123Z,100.00
2019-01-04T19:46:55.931Z,100.00
2019-01-04T19:49:26.593Z,100.00
2019-01-04T19:51:56.985Z,100.00
2019-01-04T19:54:27.892Z,100.00
2019-01-04T19:56:58.940Z,100.00
2019-01-04T19:59:29.605Z,100.00
2019-01-04T20:02:00.136Z,100.00
2019-01-04T20:04:30.521Z,100.00
2019-01-04T20:07:49.043Z,100.00
2019-01-04T20:15:06.929Z,100.00
2019-01-04T20:18:11.803Z,100.00
2019-01-04T20:21:04.358Z,100.00
2019-01-04T20:23:51.866Z,100.00
2019-01-04T20:26:44.396Z,100.00
2019-01-04T20:29:31.985Z,100.00
2019-01-04T20:32:34.304Z,100.00
2019-01-04T20:35:24.448Z,100.00
2019-01-04T20:38:16.716Z,100.00
2019-01-04T20:41:18.480Z,100.00
2019-01-04T20:44:07.378Z,100.00
2019-01-04T20:46:55.110Z,100.00
2019-01-04T20:49:56.717Z,100.00
2019-01-04T20:52:45.150Z,100.00
2019-01-04T20:55:32.646Z,100.00
2019-01-04T20:58:20.153Z,100.00
2019-01-04T21:01:15.784Z,100.00
2019-01-04T21:04:06.015Z,100.00
2019-01-04T21:07:01.509Z,100.00
2019-01-04T21:09:52.310Z,96.46
2019-01-04T21:12:52.216Z,97.43
2019-01-04T21:15:53.739Z,98.32
2019-01-04T21:18:49.329Z,99.10
2019-01-04T21:21:47.393Z,99.67
2019-01-04T21:24:33.297Z,100.00
2019-01-04T21:27:25.469Z,100.00
2019-01-04T21:30:13.075Z,100.00
2019-01-04T21:33:01.308Z,100.00
2019-01-04T21:36:01.248Z,100.00
2019-01-04T21:39:02.523Z,100.00
2019-01-04T21:41:52.400Z,100.00
2019-01-04T21:44:41.595Z,100.00
2019-01-04T21:47:29.804Z,100.00
2019-01-04T21:50:31.262Z,100.00
2019-01-04T21:53:19.068Z,100.00
2019-01-04T21:56:11.651Z,100.00
2019-01-04T21:58:59.891Z,100.00
2019-01-04T22:01:49.341Z,100.00
2019-01-04T22:04:37.299Z,100.00
2019-01-04T22:07:28.153Z,100.00
2019-01-04T22:10:13.301Z,100.00
2019-01-04T22:13:08.476Z,100.00
2019-01-04T22:16:03.986Z,100.00
2019-01-04T22:18:56.335Z,100.00
2019-01-04T22:21:43.794Z,100.00
2019-01-04T22:24:31.910Z,100.00
2019-01-04T22:27:36.860Z,100.00
2019-01-04T22:30:25.706Z,100.00
2019-01-04T22:33:17.673Z,100.00
2019-01-04T22:36:06.063Z,100.00
2019-01-04T22:38:54.143Z,100.00
2019-01-04T22:41:43.489Z,100.00
2019-01-04T22:44:25.503Z,100.00
2019-01-04T22:47:16.222Z,100.00
2019-01-04T22:50:20.964Z,100.00
2019-01-04T22:53:07.394Z,100.00
2019-01-04T22:56:05.845Z,100.00
2019-01-04T22:58:54.156Z,100.00
2019-01-04T23:01:43.052Z,100.00
2019-01-04T23:04:47.116Z,100.00
2019-01-04T23:07:48.790Z,100.00
2019-01-04T23:10:36.941Z,100.00
2019-01-04T23:13:29.950Z,100.00
2019-01-04T23:16:18.157Z,100.00
2019-01-04T23:19:07.625Z,100.00
2019-01-04T23:22:26.344Z,100.00
2019-01-04T23:25:31.463Z,100.00
2019-01-04T23:28:29.650Z,100.00
2019-01-04T23:31:17.874Z,100.00
2019-01-04T23:34:05.990Z,100.00
2019-01-04T23:37:11.010Z,100.00
2019-01-04T23:39:59.504Z,100.00
2019-01-04T23:42:48.750Z,100.00
2019-01-04T23:45:38.166Z,100.00
2019-01-04T23:48:30.448Z,100.00
2019-01-04T23:51:25.620Z,100.00
2019-01-04T23:54:13.511Z,100.00
2019-01-04T23:57:01.543Z,100.00
2019-01-04T23:59:49.346Z,100.00
